Terminal Aerodrome Forecast
Issued by NWS

Home | Current Version | Previous Version | Text Only | Print | Product List | Glossary On
Versions: 1 2 3 4 5 6 7 8 9 10 11 12 13 14 15 16 17 18 19 20 21 22 23 24 25 26 27 28 29 30
000
FTPA31 PHFO 020800 AAA
TAFKOA
TAF AMD
PHKO 020820Z 0208/0306 18008KT P6SM SCT060
      TEMPO 0208/0210 12012KT 3SM SHRA SCT030 OVC060
     FM021800 18008KT P6SM VCSH FEW035 BKN060
     FM022200 22011KT P6SM VCSH FEW035 BKN060
     FM030400 22008KT P6SM -SHRA BKN035 OVC060=

USA.gov is the U.S. government's official web portal to all federal, state and local government web resources and services.